Atlantic Companion — SKPE — position and weather

sailwx.info

Track history (hours):
 
Tides and Currents Weather Stations Pressure Air Temp Water Temp Dewpoint Dewpoint Depression Visibility Wind Speed Wind Dir Waves Ship Positions

Atlantic Companion

Last reported at 2014-Jul-31 11:32 UTC. Time now 2014-Jul-31 19:40 UTC.
Position N 39°00' W 074°12'.

Length 292 m; beam 32.3 m; draft 11.6 m.

Type: Cargo ship. MMSI: 265142000.

Date/timePositionNaut miles runAvg speedWind from/ knotsBaromVisibWave heightAir tempDewpointWater temp
2014-Jul-31 11:32N 39°00' W 074°12'1815.7
2014-Jul-31 10:23N 39°17' W 074°04'1416.5
2014-Jul-31 09:34N 39°30' W 073°58'1616.3
2014-Jul-31 08:33N 39°46' W 073°52'1616.4
2014-Jul-31 07:34N 40°02' W 073°52'1616.4
2014-Jul-31 06:33N 40°18' W 073°50'1111.3
2014-Jul-31 05:33N 40°29' W 073°54'1313.1
2014-Jul-31 04:33N 40°39' W 074°05'3 2.8
2014-Jul-31 03:33N 40°40' W 074°09'0 0.0
2014-Jul-31 02:33N 40°40' W 074°09'0 0.0
2014-Jul-31 01:33N 40°40' W 074°09'0 0.0
2014-Jul-31 00:27N 40°40' W 074°09'0 0.0
2014-Jul-30 23:33N 40°40' W 074°09'1 1.2
2014-Jul-30 22:33N 40°41' W 074°08'1 0.8
2014-Jul-30 21:32N 40°42' W 074°08'0 0.0
2014-Jul-30 20:32N 40°42' W 074°08'0 0.0
2014-Jul-30 19:32N 40°42' W 074°08'0 0.0
2014-Jul-30 18:32N 40°42' W 074°08'0 0.0
2014-Jul-30 17:32N 40°42' W 074°08'0 0.0
2014-Jul-30 16:33N 40°42' W 074°08'3 3.3
2014-Jul-30 15:33N 40°39' W 074°06'9 9.4
2014-Jul-30 14:33N 40°31' W 073°59'1514.5
2014-Jul-30 13:33N 40°27' W 073°41'1616.4
2014-Jul-30 12:34N 40°29' W 073°20'1615.9
2014-Jul-30 11:33N 40°30' W 072°59'1616.0
2014-Jul-30 10:34N 40°30' W 072°38'1616.3
2014-Jul-30 09:34N 40°30' W 072°16'1616.5
2014-Jul-30 08:34N 40°31' W 071°55'1716.5
2014-Jul-30 07:33N 40°31' W 071°33'1716.8
2014-Jul-30 06:34N 40°32' W 071°11'1716.7
2014-Jul-30 05:33N 40°32' W 070°49'1616.2
2014-Jul-30 04:34N 40°33' W 070°28'1817.2
2014-Jul-30 03:32N 40°33' W 070°05'1716.8
2014-Jul-30 02:33N 40°34' W 069°43'1817.7
2014-Jul-30 01:33N 40°34' W 069°20'1717.4
2014-Jul-30 00:33N 40°41' W 068°58'1918.1
2014-Jul-29 23:32N 40°47' W 068°35'1818.4
2014-Jul-29 22:34N 40°54' W 068°13'29216.8
2014-Jul-29 05:12N 44°19' W 063°32'914.2
2014-Jul-29 04:33N 44°28' W 063°30'1211.7
2014-Jul-29 03:33N 44°39' W 063°34'3 2.5
2014-Jul-29 02:30N 44°40' W 063°38'0 0.0
2014-Jul-29 01:30N 44°40' W 063°38'0 0.0
2014-Jul-29 00:33N 44°40' W 063°38'0 0.0
2014-Jul-28 23:33N 44°40' W 063°38'0 0.0
2014-Jul-28 22:33N 44°40' W 063°38'0 0.0
2014-Jul-28 21:33N 44°40' W 063°38'0 0.3
2014-Jul-28 20:33N 44°40' W 063°38'5 5.5
2014-Jul-28 19:33N 44°36' W 063°32'50516.0
2014-Jul-27 12:00N 45°18' W 051°42'21618.0 260 / 121018.510.8 2.516.3 14.3
2014-Jul-27 00:00N 45°42' W 046°36'29516.4 210 / 211013.5 0.1 2.515.5 12.5
2014-Jul-26 06:00N 47°12' W 039°48'22018.3 220 / 121017.5 16.5 14.0
2014-Jul-25 18:00N 48°30' W 034°42'10717.9 080 / 81017.2 5.4 0.515.6 14.2
2014-Jul-25 12:00N 49°00' W 032°06'33218.4 010 / 151015.510.8 1.515.0 13.3
2014-Jul-24 18:00N 50°18' W 023°48'51418.1 130 / 151017.0 5.4 0.514.8 13.1
2014-Jul-23 13:33N 51°18' W 010°20'1818.0
2014-Jul-23 12:34N 51°19' W 009°51'1818.0
2014-Jul-23 11:33N 51°22' W 009°23'1918.5
2014-Jul-23 10:33N 51°28' W 008°55'1918.7
2014-Jul-23 09:33N 51°34' W 008°26'1919.1
2014-Jul-23 08:33N 51°40' W 007°57'1919.1
2014-Jul-23 07:33N 51°47' W 007°28'1918.7
2014-Jul-23 06:33N 51°54' W 007°00'1818.3
2014-Jul-23 05:33N 52°01' W 006°33'1717.5
2014-Jul-23 04:33N 52°10' W 006°09'1717.4
2014-Jul-23 03:33N 52°25' W 005°55'1818.2
2014-Jul-23 02:33N 52°41' W 005°40'1919.1
2014-Jul-23 01:33N 52°57' W 005°24'2419.7
2014-Jul-23 00:20N 53°18' W 005°04'1620.3
2014-Jul-22 23:33N 53°30' W 004°47'3919.4
2014-Jul-22 21:32N 53°33' W 003°42'1716.7
2014-Jul-22 20:32N 53°31' W 003°14'9 8.6
2014-Jul-22 19:32N 53°27' W 003°01'1 0.1
2014-Jul-22 14:31N 53°28' W 003°01'0 0.0
2014-Jul-22 13:19N 53°28' W 003°01'0 0.0
2014-Jul-22 12:31N 53°28' W 003°01'0 0.0
2014-Jul-22 11:31N 53°28' W 003°01'0 0.0
2014-Jul-22 10:25N 53°28' W 003°01'0 0.0
2014-Jul-22 05:07N 53°28' W 003°01'0 0.0
2014-Jul-22 00:31N 53°28' W 003°01'0 0.0
2014-Jul-21 23:25N 53°28' W 003°01'0 0.0
2014-Jul-21 22:31N 53°28' W 003°01'0 0.0
2014-Jul-21 21:31N 53°28' W 003°01'0 0.0
2014-Jul-21 20:31N 53°28' W 003°01'0 0.0
2014-Jul-21 20:13N 53°28' W 003°01'0 0.0
2014-Jul-21 19:31N 53°28' W 003°01'1 0.7
2014-Jul-21 18:33N 53°27' W 003°01'0 0.2
2014-Jul-21 17:33N 53°27' W 003°01'3 3.4
2014-Jul-21 16:33N 53°29' W 003°05'1010.2
2014-Jul-21 15:33N 53°31' W 003°22'2019.8
2014-Jul-21 14:33N 53°29' W 003°55'1717.0
2014-Jul-21 13:34N 53°28' W 004°23'  
Track history (hours):
 
Tides and Currents Weather Stations Pressure Air Temp Water Temp Dewpoint Dewpoint Depression Visibility Wind Speed Wind Dir Waves Ship Positions

Atlantic Companion

Last reported at 2014-Jul-31 11:32 UTC. Time now 2014-Jul-31 19:40 UTC.
Position N 39°00' W 074°12'.

Length 292 m; beam 32.3 m; draft 11.6 m.

Type: Cargo ship. MMSI: 265142000.

Date/timePositionNaut miles runAvg speedWind from/ knotsBaromVisibWave heightAir tempDewpointWater temp
2014-Jul-31 11:32N 39°00' W 074°12'1815.7
2014-Jul-31 10:23N 39°17' W 074°04'1416.5
2014-Jul-31 09:34N 39°30' W 073°58'1616.3
2014-Jul-31 08:33N 39°46' W 073°52'1616.4
2014-Jul-31 07:34N 40°02' W 073°52'1616.4
2014-Jul-31 06:33N 40°18' W 073°50'1111.3
2014-Jul-31 05:33N 40°29' W 073°54'1313.1
2014-Jul-31 04:33N 40°39' W 074°05'3 2.8
2014-Jul-31 03:33N 40°40' W 074°09'0 0.0
2014-Jul-31 02:33N 40°40' W 074°09'0 0.0
2014-Jul-31 01:33N 40°40' W 074°09'0 0.0
2014-Jul-31 00:27N 40°40' W 074°09'0 0.0
2014-Jul-30 23:33N 40°40' W 074°09'1 1.2
2014-Jul-30 22:33N 40°41' W 074°08'1 0.8
2014-Jul-30 21:32N 40°42' W 074°08'0 0.0
2014-Jul-30 20:32N 40°42' W 074°08'0 0.0
2014-Jul-30 19:32N 40°42' W 074°08'0 0.0
2014-Jul-30 18:32N 40°42' W 074°08'0 0.0
2014-Jul-30 17:32N 40°42' W 074°08'0 0.0
2014-Jul-30 16:33N 40°42' W 074°08'3 3.3
2014-Jul-30 15:33N 40°39' W 074°06'9 9.4
2014-Jul-30 14:33N 40°31' W 073°59'1514.5
2014-Jul-30 13:33N 40°27' W 073°41'1616.4
2014-Jul-30 12:34N 40°29' W 073°20'1615.9
2014-Jul-30 11:33N 40°30' W 072°59'1616.0
2014-Jul-30 10:34N 40°30' W 072°38'1616.3
2014-Jul-30 09:34N 40°30' W 072°16'1616.5
2014-Jul-30 08:34N 40°31' W 071°55'1716.5
2014-Jul-30 07:33N 40°31' W 071°33'1716.8
2014-Jul-30 06:34N 40°32' W 071°11'1716.7
2014-Jul-30 05:33N 40°32' W 070°49'1616.2
2014-Jul-30 04:34N 40°33' W 070°28'1817.2
2014-Jul-30 03:32N 40°33' W 070°05'1716.8
2014-Jul-30 02:33N 40°34' W 069°43'1817.7
2014-Jul-30 01:33N 40°34' W 069°20'1717.4
2014-Jul-30 00:33N 40°41' W 068°58'1918.1
2014-Jul-29 23:32N 40°47' W 068°35'1818.4
2014-Jul-29 22:34N 40°54' W 068°13'29216.8
2014-Jul-29 05:12N 44°19' W 063°32'914.2
2014-Jul-29 04:33N 44°28' W 063°30'1211.7
2014-Jul-29 03:33N 44°39' W 063°34'3 2.5
2014-Jul-29 02:30N 44°40' W 063°38'0 0.0
2014-Jul-29 01:30N 44°40' W 063°38'0 0.0
2014-Jul-29 00:33N 44°40' W 063°38'0 0.0
2014-Jul-28 23:33N 44°40' W 063°38'0 0.0
2014-Jul-28 22:33N 44°40' W 063°38'0 0.0
2014-Jul-28 21:33N 44°40' W 063°38'0 0.3
2014-Jul-28 20:33N 44°40' W 063°38'5 5.5
2014-Jul-28 19:33N 44°36' W 063°32'50516.0
2014-Jul-27 12:00N 45°18' W 051°42'21618.0 260 / 121018.510.8 2.516.3 14.3
2014-Jul-27 00:00N 45°42' W 046°36'29516.4 210 / 211013.5 0.1 2.515.5 12.5
2014-Jul-26 06:00N 47°12' W 039°48'22018.3 220 / 121017.5 16.5 14.0
2014-Jul-25 18:00N 48°30' W 034°42'10717.9 080 / 81017.2 5.4 0.515.6 14.2
2014-Jul-25 12:00N 49°00' W 032°06'33218.4 010 / 151015.510.8 1.515.0 13.3
2014-Jul-24 18:00N 50°18' W 023°48'51418.1 130 / 151017.0 5.4 0.514.8 13.1
2014-Jul-23 13:33N 51°18' W 010°20'1818.0
2014-Jul-23 12:34N 51°19' W 009°51'1818.0
2014-Jul-23 11:33N 51°22' W 009°23'1918.5
2014-Jul-23 10:33N 51°28' W 008°55'1918.7
2014-Jul-23 09:33N 51°34' W 008°26'1919.1
2014-Jul-23 08:33N 51°40' W 007°57'1919.1
2014-Jul-23 07:33N 51°47' W 007°28'1918.7
2014-Jul-23 06:33N 51°54' W 007°00'1818.3
2014-Jul-23 05:33N 52°01' W 006°33'1717.5
2014-Jul-23 04:33N 52°10' W 006°09'1717.4
2014-Jul-23 03:33N 52°25' W 005°55'1818.2
2014-Jul-23 02:33N 52°41' W 005°40'1919.1
2014-Jul-23 01:33N 52°57' W 005°24'2419.7
2014-Jul-23 00:20N 53°18' W 005°04'1620.3
2014-Jul-22 23:33N 53°30' W 004°47'3919.4
2014-Jul-22 21:32N 53°33' W 003°42'1716.7
2014-Jul-22 20:32N 53°31' W 003°14'9 8.6
2014-Jul-22 19:32N 53°27' W 003°01'1 0.1
2014-Jul-22 14:31N 53°28' W 003°01'0 0.0
2014-Jul-22 13:19N 53°28' W 003°01'0 0.0
2014-Jul-22 12:31N 53°28' W 003°01'0 0.0
2014-Jul-22 11:31N 53°28' W 003°01'0 0.0
2014-Jul-22 10:25N 53°28' W 003°01'0 0.0
2014-Jul-22 05:07N 53°28' W 003°01'0 0.0
2014-Jul-22 00:31N 53°28' W 003°01'0 0.0
2014-Jul-21 23:25N 53°28' W 003°01'0 0.0
2014-Jul-21 22:31N 53°28' W 003°01'0 0.0
2014-Jul-21 21:31N 53°28' W 003°01'0 0.0
2014-Jul-21 20:31N 53°28' W 003°01'0 0.0
2014-Jul-21 20:13N 53°28' W 003°01'0 0.0
2014-Jul-21 19:31N 53°28' W 003°01'1 0.7
2014-Jul-21 18:33N 53°27' W 003°01'0 0.2
2014-Jul-21 17:33N 53°27' W 003°01'3 3.4
2014-Jul-21 16:33N 53°29' W 003°05'1010.2
2014-Jul-21 15:33N 53°31' W 003°22'2019.8
2014-Jul-21 14:33N 53°29' W 003°55'1717.0
2014-Jul-21 13:34N 53°28' W 004°23'  

Dump ship's entire track history